createdAt,value
2022-09-27T00:04:00.582Z,50.55
2022-09-27T00:09:04.902Z,50.83
2022-09-27T00:14:08.020Z,50.93
2022-09-27T00:19:12.354Z,50.88
2022-09-27T00:24:17.430Z,51.21
2022-09-27T00:29:20.283Z,51.37
2022-09-27T00:34:23.865Z,51.25
2022-09-27T00:39:28.206Z,51.42
2022-09-27T00:44:55.453Z,51.63
2022-09-27T00:50:00.049Z,51.67
2022-09-27T00:55:05.610Z,51.64
2022-09-27T01:00:10.239Z,51.93
2022-09-27T01:05:13.435Z,51.82
2022-09-27T01:10:17.739Z,51.98
2022-09-27T01:15:24.580Z,51.85
2022-09-27T01:21:05.143Z,52.08
2022-09-27T01:26:14.496Z,51.85
2022-09-27T01:31:21.323Z,52.26
2022-09-27T01:36:28.274Z,52.18
2022-09-27T01:41:34.558Z,52.24
2022-09-27T01:46:54.082Z,52.31
2022-09-27T01:52:09.512Z,52.14
2022-09-27T01:57:12.436Z,52.35
2022-09-27T02:02:17.321Z,52.25
2022-09-27T02:07:48.601Z,52.20
2022-09-27T02:12:53.654Z,52.19
2022-09-27T02:17:59.347Z,52.34
2022-09-27T02:23:07.982Z,52.65
2022-09-27T02:28:16.093Z,52.77
2022-09-27T02:33:21.323Z,52.61
2022-09-27T02:38:24.180Z,52.73
2022-09-27T02:43:29.862Z,52.75
2022-09-27T02:48:36.564Z,52.77
2022-09-27T02:53:43.643Z,53.11
2022-09-27T02:59:29.321Z,52.96
2022-09-27T03:04:46.884Z,52.95
2022-09-27T03:09:50.539Z,53.00
2022-09-27T03:14:53.855Z,53.23
2022-09-27T03:20:20.905Z,53.30
2022-09-27T03:25:30.846Z,53.34
2022-09-27T03:30:33.620Z,53.13
2022-09-27T03:35:38.282Z,53.15
2022-09-27T03:40:41.361Z,53.30
2022-09-27T03:45:45.813Z,53.24
2022-09-27T03:50:51.601Z,53.31
2022-09-27T03:55:54.327Z,53.59
2022-09-27T04:00:57.291Z,53.83
2022-09-27T04:06:01.613Z,53.53
2022-09-27T04:11:12.512Z,53.67
2022-09-27T04:16:18.110Z,53.67
2022-09-27T04:21:38.683Z,53.68
2022-09-27T04:26:43.051Z,53.72
2022-09-27T04:31:48.699Z,54.05
2022-09-27T04:37:14.722Z,54.04
2022-09-27T04:42:21.627Z,53.89
2022-09-27T04:47:24.792Z,53.87
2022-09-27T04:52:28.882Z,54.02
2022-09-27T04:57:31.604Z,54.13
2022-09-27T05:02:34.410Z,54.18
2022-09-27T05:08:10.711Z,54.31
2022-09-27T05:13:42.150Z,54.23
2022-09-27T05:18:44.893Z,54.65
2022-09-27T05:24:15.805Z,54.72
2022-09-27T05:29:18.651Z,54.74
2022-09-27T05:34:32.544Z,54.70
2022-09-27T05:39:37.265Z,54.39
2022-09-27T05:44:40.314Z,54.19
2022-09-27T05:49:43.028Z,54.28
2022-09-27T05:54:49.167Z,54.27
2022-09-27T05:59:52.188Z,54.44
2022-09-27T06:04:57.622Z,54.08
2022-09-27T06:10:20.225Z,54.20
2022-09-27T06:15:23.606Z,54.37
2022-09-27T06:20:26.794Z,54.46
2022-09-27T06:25:31.091Z,54.40
2022-09-27T06:30:44.924Z,54.64
2022-09-27T06:36:01.729Z,54.56
2022-09-27T06:41:07.419Z,54.34
2022-09-27T06:46:20.960Z,54.29
2022-09-27T06:51:26.494Z,54.26
2022-09-27T06:56:31.115Z,54.26
2022-09-27T07:01:33.967Z,54.41
2022-09-27T07:06:55.184Z,54.49
2022-09-27T07:12:02.086Z,54.15
2022-09-27T07:17:06.568Z,54.28
2022-09-27T07:22:13.533Z,54.57
2022-09-27T07:27:20.359Z,54.32
2022-09-27T07:32:23.368Z,54.25
2022-09-27T07:37:26.428Z,48.49
2022-09-27T07:42:31.220Z,51.59
2022-09-27T07:47:34.113Z,53.11
2022-09-27T07:52:47.576Z,54.13
2022-09-27T07:58:10.619Z,54.77
2022-09-27T08:03:15.924Z,54.66
2022-09-27T08:08:18.679Z,55.56
2022-09-27T08:13:24.915Z,54.16
2022-09-27T08:18:29.285Z,52.62
2022-09-27T08:23:36.898Z,51.89
2022-09-27T08:29:04.933Z,51.98
2022-09-27T08:34:12.517Z,51.51
2022-09-27T08:39:15.428Z,51.77
2022-09-27T08:44:26.331Z,49.65
2022-09-27T08:49:38.317Z,50.69
2022-09-27T08:54:41.152Z,52.71
2022-09-27T08:59:48.133Z,51.71
2022-09-27T09:04:52.384Z,51.47
2022-09-27T09:09:58.352Z,50.79
2022-09-27T09:15:08.448Z,50.82
2022-09-27T09:20:17.750Z,50.68
2022-09-27T09:25:34.645Z,50.60
2022-09-27T09:30:43.032Z,50.55
2022-09-27T09:35:48.439Z,50.77
2022-09-27T09:40:53.779Z,50.99
2022-09-27T09:45:59.619Z,50.88
2022-09-27T09:51:03.389Z,50.98
2022-09-27T09:56:07.039Z,50.91
2022-09-27T10:01:15.307Z,50.94
2022-09-27T10:06:18.534Z,50.86
2022-09-27T10:11:24.042Z,50.90
2022-09-27T10:16:42.410Z,50.63
2022-09-27T10:21:45.796Z,50.93
2022-09-27T10:26:51.859Z,50.87
2022-09-27T10:31:56.134Z,51.25
2022-09-27T10:37:17.184Z,51.09
2022-09-27T10:42:35.037Z,50.98
2022-09-27T10:47:40.163Z,50.85
2022-09-27T10:53:04.122Z,51.03
2022-09-27T10:58:07.084Z,51.10
2022-09-27T11:03:16.088Z,51.19
2022-09-27T11:08:24.372Z,51.11
2022-09-27T11:13:42.081Z,51.19
2022-09-27T11:18:53.639Z,51.21
2022-09-27T11:24:12.583Z,51.09
2022-09-27T11:29:22.655Z,51.43
2022-09-27T11:35:00.961Z,51.27
2022-09-27T11:40:11.025Z,51.59
2022-09-27T11:45:37.241Z,51.73
2022-09-27T11:50:53.595Z,52.18
2022-09-27T11:56:02.303Z,52.05
2022-09-27T12:01:11.015Z,52.36
2022-09-27T12:06:18.928Z,52.70
2022-09-27T12:11:26.485Z,52.51
2022-09-27T12:16:29.562Z,52.61
2022-09-27T12:21:33.894Z,52.64
2022-09-27T12:26:39.012Z,52.58
2022-09-27T12:31:44.486Z,52.67
2022-09-27T12:36:51.499Z,52.68
2022-09-27T12:42:01.881Z,52.68
2022-09-27T12:47:21.533Z,52.74
2022-09-27T12:52:26.694Z,52.39
2022-09-27T12:57:35.502Z,51.65
2022-09-27T13:03:15.319Z,50.93
2022-09-27T13:08:30.846Z,50.27
2022-09-27T13:13:36.690Z,50.63
2022-09-27T13:18:53.841Z,50.76
2022-09-27T13:24:01.427Z,51.04
2022-09-27T13:29:28.141Z,51.74
2022-09-27T13:34:38.747Z,52.11
2022-09-27T13:39:43.214Z,52.00
2022-09-27T13:45:21.093Z,51.30
2022-09-27T13:50:26.030Z,50.13
2022-09-27T13:55:44.019Z,50.46
2022-09-27T14:00:53.196Z,50.68
2022-09-27T14:05:57.937Z,48.58
2022-09-27T14:11:02.986Z,48.39
2022-09-27T14:16:08.582Z,48.95
2022-09-27T14:21:27.708Z,49.14
2022-09-27T14:26:45.810Z,49.20
2022-09-27T14:31:49.131Z,48.63
2022-09-27T14:37:15.207Z,48.74
2022-09-27T14:42:32.384Z,48.73
2022-09-27T14:47:35.035Z,49.12
2022-09-27T14:52:39.875Z,49.42
2022-09-27T14:57:47.901Z,47.97
2022-09-27T15:02:50.797Z,46.57
2022-09-27T15:07:55.686Z,46.73
2022-09-27T15:13:01.384Z,46.54
2022-09-27T15:18:04.292Z,46.11
2022-09-27T15:23:06.933Z,46.36
2022-09-27T15:28:17.547Z,46.85
2022-09-27T15:33:20.881Z,46.91
2022-09-27T15:38:25.925Z,47.09
2022-09-27T15:43:30.978Z,47.62
2022-09-27T15:48:35.356Z,47.91
2022-09-27T15:53:42.136Z,48.22
2022-09-27T15:58:46.266Z,48.68
2022-09-27T16:03:49.790Z,49.17
2022-09-27T16:08:52.628Z,48.96
2022-09-27T16:13:56.635Z,48.44
2022-09-27T16:18:59.207Z,48.65
2022-09-27T16:24:06.231Z,40.14
2022-09-27T16:29:12.637Z,40.60
2022-09-27T16:34:15.478Z,44.37
2022-09-27T16:39:18.195Z,44.95
2022-09-27T16:44:22.230Z,44.89
2022-09-27T16:49:42.356Z,45.11
2022-09-27T16:54:44.989Z,45.50
2022-09-27T16:59:48.982Z,46.05
2022-09-27T17:04:51.619Z,46.05
2022-09-27T17:09:54.255Z,46.24
2022-09-27T17:14:58.202Z,46.81
2022-09-27T17:20:01.070Z,47.08
2022-09-27T17:25:03.936Z,47.13
2022-09-27T17:30:09.318Z,46.99
2022-09-27T17:35:11.984Z,46.96
2022-09-27T17:40:16.148Z,46.78
2022-09-27T17:45:21.455Z,46.77
2022-09-27T17:50:28.428Z,46.85
2022-09-27T17:55:31.029Z,47.06
2022-09-27T18:00:35.134Z,47.16
2022-09-27T18:05:38.275Z,47.05
2022-09-27T18:10:40.922Z,47.46
2022-09-27T18:15:45.115Z,47.49
2022-09-27T18:20:48.479Z,47.32
2022-09-27T18:25:54.940Z,47.27
2022-09-27T18:31:02.227Z,47.46
2022-09-27T18:36:06.057Z,47.39
2022-09-27T18:41:08.884Z,47.45
2022-09-27T18:46:34.671Z,47.50
2022-09-27T18:51:37.721Z,47.42
2022-09-27T18:56:41.099Z,47.36
2022-09-27T19:01:46.214Z,47.48
2022-09-27T19:06:48.953Z,47.58
2022-09-27T19:11:51.834Z,47.39
2022-09-27T19:16:55.759Z,47.50
2022-09-27T19:21:58.319Z,47.65
2022-09-27T19:27:00.903Z,47.65
2022-09-27T19:32:04.883Z,47.50
2022-09-27T19:37:07.776Z,47.71
2022-09-27T19:42:10.399Z,47.47
2022-09-27T19:47:14.712Z,47.38
2022-09-27T19:52:17.574Z,47.40
2022-09-27T19:57:20.246Z,47.67
2022-09-27T20:02:24.442Z,47.78
2022-09-27T20:07:27.108Z,47.77
2022-09-27T20:12:29.912Z,47.56
2022-09-27T20:17:34.506Z,47.37
2022-09-27T20:22:37.282Z,47.54
2022-09-27T20:27:39.957Z,47.55
2022-09-27T20:33:03.945Z,47.84
2022-09-27T20:38:06.674Z,47.83
2022-09-27T20:43:09.557Z,47.87
2022-09-27T20:48:13.956Z,48.08
2022-09-27T20:53:16.706Z,47.80
2022-09-27T20:58:19.342Z,47.71
2022-09-27T21:03:23.357Z,47.88
2022-09-27T21:08:26.060Z,47.81
2022-09-27T21:13:28.670Z,47.90
2022-09-27T21:18:32.608Z,48.05
2022-09-27T21:23:35.661Z,48.05
2022-09-27T21:28:38.892Z,48.12
2022-09-27T21:33:42.928Z,48.02
2022-09-27T21:38:45.630Z,47.96
2022-09-27T21:43:48.784Z,48.06
2022-09-27T21:48:54.597Z,48.10
2022-09-27T21:53:58.331Z,47.96
2022-09-27T21:59:00.982Z,48.10
2022-09-27T22:04:05.976Z,48.03
2022-09-27T22:09:09.714Z,48.17
2022-09-27T22:14:12.498Z,48.22
2022-09-27T22:19:16.862Z,48.53
2022-09-27T22:24:19.818Z,48.45
2022-09-27T22:29:22.487Z,48.67
2022-09-27T22:34:29.762Z,49.02
2022-09-27T22:39:32.337Z,49.04
2022-09-27T22:44:34.916Z,49.15
2022-09-27T22:49:38.825Z,49.03
2022-09-27T22:54:41.411Z,49.37
2022-09-27T22:59:44.144Z,49.52
2022-09-27T23:04:48.569Z,49.64
2022-09-27T23:09:51.223Z,49.83
2022-09-27T23:14:53.817Z,49.86
2022-09-27T23:19:57.744Z,49.93
2022-09-27T23:25:00.824Z,49.85
2022-09-27T23:30:03.429Z,49.98
2022-09-27T23:35:07.888Z,50.17
2022-09-27T23:40:12.159Z,50.09
2022-09-27T23:45:16.289Z,50.01
2022-09-27T23:50:21.888Z,50.36
2022-09-27T23:55:24.482Z,50.33
